Time;durP1;ratioP1;P1;durP2;ratioP2;P2;SDS_P1;SDS_P2;PMS_P1;PMS_P2;Temp;Humidity;BMP_temperature;BMP_pressure;BME280_temperature;BME280_humidity;BME280_pressure;Samples;Min_cycle;Max_cycle;Signal;HPM_P1;HPM_P2
2023/06/07 00:01:50;;;;;;;;;9.75;6.75;;;;;14.43;68.92;102190.88;5013502;28;9697;-66
2023/06/07 00:04:16;;;;;;;;;5.50;5.50;;;;;14.43;69.51;102193.59;5031002;28;9823;-67
2023/06/07 00:06:43;;;;;;;;;8.50;8.50;;;;;14.38;69.01;102191.44;5029842;28;10303;-66
2023/06/07 00:09:10;;;;;;;;;8.50;6.25;;;;;14.31;69.30;102195.91;5049189;28;9626;-66
2023/06/07 00:11:36;;;;;;;;;7.00;6.00;;;;;14.29;69.53;102190.66;5049435;28;9714;-66
2023/06/07 00:14:03;;;;;;;;;8.25;8.25;;;;;14.24;69.96;102197.66;5037890;28;9768;-66
2023/06/07 00:16:30;;;;;;;;;4.75;3.25;;;;;14.27;70.15;102200.84;5050884;28;9889;-67
2023/06/07 00:18:57;;;;;;;;;6.75;5.00;;;;;14.27;70.02;102195.44;5049875;28;9526;-66
2023/06/07 00:21:24;;;;;;;;;5.50;5.50;;;;;14.25;69.58;102197.47;5045664;28;9669;-66
2023/06/07 00:23:51;;;;;;;;;10.00;6.00;;;;;14.24;69.74;102203.09;5049975;28;9857;-66
2023/06/07 00:26:17;;;;;;;;;6.25;6.00;;;;;14.24;70.12;102201.22;5037332;28;9633;-66
2023/06/07 00:28:48;;;;;;;;;7.75;7.25;;;;;14.11;69.50;102201.03;5012961;28;10571;-66
2023/06/07 00:31:14;;;;;;;;;6.00;4.00;;;;;14.05;70.39;102196.31;5012916;28;9788;-65
2023/06/07 00:33:41;;;;;;;;;6.25;5.50;;;;;14.07;70.29;102197.84;5023542;28;9612;-66
2023/06/07 00:36:07;;;;;;;;;10.00;6.00;;;;;14.04;70.35;102197.38;4996339;28;9691;-66
2023/06/07 00:38:34;;;;;;;;;10.25;6.50;;;;;14.03;70.64;102203.81;5044042;28;9734;-66
2023/06/07 00:41:01;;;;;;;;;7.75;7.75;;;;;14.02;70.73;102199.44;5034228;28;9683;-66
2023/06/07 00:43:27;;;;;;;;;5.50;5.50;;;;;14.00;71.04;102190.63;5031808;28;10454;-66
2023/06/07 00:45:54;;;;;;;;;7.25;7.25;;;;;14.01;70.91;102195.00;5048612;28;9767;-66
2023/06/07 00:48:21;;;;;;;;;4.25;4.25;;;;;14.03;71.02;102193.81;5037265;28;10529;-67
2023/06/07 00:50:49;;;;;;;;;7.00;6.75;;;;;14.00;70.50;102194.19;5023501;28;9532;-66
2023/06/07 00:53:16;;;;;;;;;8.00;7.50;;;;;13.98;71.20;102187.28;5012966;28;9729;-66
2023/06/07 00:55:42;;;;;;;;;5.75;5.75;;;;;14.03;70.97;102188.41;5030067;28;9756;-66
2023/06/07 00:58:10;;;;;;;;;10.50;6.75;;;;;14.08;70.86;102193.25;5022520;28;9616;-66
2023/06/07 01:00:37;;;;;;;;;8.00;8.00;;;;;14.04;70.34;102195.50;5032184;28;9593;-66
2023/06/07 01:03:05;;;;;;;;;6.00;6.00;;;;;14.06;70.77;102198.03;5043316;28;10011;-66
2023/06/07 01:05:32;;;;;;;;;4.50;4.50;;;;;14.10;70.31;102196.63;5049785;28;9590;-66
2023/06/07 01:08:00;;;;;;;;;4.50;4.50;;;;;14.08;70.31;102194.09;5049456;28;10000;-66
2023/06/07 01:10:27;;;;;;;;;7.50;7.00;;;;;14.06;70.67;102192.63;5050062;28;9670;-65
2023/06/07 01:12:54;;;;;;;;;6.25;6.25;;;;;14.03;70.64;102190.28;5042145;28;9835;-65
2023/06/07 01:15:22;;;;;;;;;6.75;6.25;;;;;14.02;70.59;102192.13;5028249;28;9615;-66
2023/06/07 01:17:51;;;;;;;;;7.75;5.00;;;;;13.98;70.71;102192.69;5017811;28;10263;-66
2023/06/07 01:20:21;;;;;;;;;5.25;5.25;;;;;14.01;70.63;102192.31;5032081;28;9601;-67
2023/06/07 01:22:51;;;;;;;;;9.25;7.50;;;;;14.03;70.76;102192.97;5046389;28;9719;-66
2023/06/07 01:25:19;;;;;;;;;7.75;6.25;;;;;14.00;70.56;102199.59;5029633;28;9914;-66
2023/06/07 01:27:47;;;;;;;;;4.50;4.50;;;;;13.93;70.27;102187.81;5020113;28;9779;-66
2023/06/07 01:30:14;;;;;;;;;4.00;4.00;;;;;13.89;70.80;102186.50;5031945;28;9970;-66
2023/06/07 01:32:42;;;;;;;;;6.75;4.50;;;;;13.91;70.69;102183.63;5043638;28;9787;-65
2023/06/07 01:35:11;;;;;;;;;5.75;5.00;;;;;13.97;70.92;102183.72;5011899;28;9600;-66
2023/06/07 01:37:40;;;;;;;;;5.75;4.00;;;;;14.00;70.73;102188.75;5031680;28;9544;-66
2023/06/07 01:40:08;;;;;;;;;7.00;5.00;;;;;13.96;70.55;102186.59;5030623;28;9732;-66
2023/06/07 01:42:36;;;;;;;;;5.00;5.00;;;;;13.97;70.79;102191.81;5049121;28;10504;-66
2023/06/07 01:45:05;;;;;;;;;7.00;7.00;;;;;13.96;70.56;102198.28;5048018;28;9616;-66
2023/06/07 01:47:33;;;;;;;;;5.00;3.50;;;;;13.96;70.62;102190.16;5044556;28;9836;-66
2023/06/07 01:49:59;;;;;;;;;7.50;6.00;;;;;13.88;70.49;102194.81;5012108;28;9785;-66
2023/06/07 01:52:27;;;;;;;;;6.00;5.00;;;;;13.83;70.88;102192.66;5033579;28;9683;-66
2023/06/07 01:54:55;;;;;;;;;5.00;5.00;;;;;13.85;71.28;102201.41;5035668;28;9756;-65
2023/06/07 01:57:46;;;;;;;;;5.25;3.00;;;;;13.89;71.13;102194.63;5032342;28;9707;-66
2023/06/07 02:00:20;;;;;;;;;5.50;4.75;;;;;13.88;70.92;102194.81;5035108;28;9523;-66
2023/06/07 02:02:53;;;;;;;;;6.00;6.00;;;;;13.85;70.63;102194.16;5042979;28;9725;-66
2023/06/07 02:05:33;;;;;;;;;5.75;5.75;;;;;13.83;70.42;102192.66;5034288;28;9718;-66
2023/06/07 02:08:11;;;;;;;;;7.50;7.50;;;;;13.76;70.66;102184.41;5052688;28;9593;-66
2023/06/07 02:10:42;;;;;;;;;5.00;4.50;;;;;13.70;70.81;102185.16;5035342;28;9609;-66
2023/06/07 02:13:10;;;;;;;;;10.00;7.25;;;;;13.58;70.47;102186.59;5025259;28;9695;-66
2023/06/07 02:15:37;;;;;;;;;9.25;8.75;;;;;13.54;71.26;102180.72;5052286;28;9861;-66
2023/06/07 02:18:04;;;;;;;;;7.75;5.50;;;;;13.57;71.31;102174.09;5034411;28;9682;-66
2023/06/07 02:20:34;;;;;;;;;6.00;5.75;;;;;13.60;71.26;102179.97;5018909;28;9874;-66
2023/06/07 02:23:01;;;;;;;;;9.75;7.25;;;;;13.62;71.22;102174.41;5027498;28;9703;-66
2023/06/07 02:25:27;;;;;;;;;5.00;3.50;;;;;13.63;72.01;102181.47;5032574;28;9627;-66
2023/06/07 02:27:54;;;;;;;;;6.00;6.00;;;;;13.68;71.37;102176.38;5033256;28;10311;-66
2023/06/07 02:30:21;;;;;;;;;5.00;5.00;;;;;13.72;70.97;102174.13;5015068;28;9681;-66
2023/06/07 02:32:50;;;;;;;;;8.50;8.50;;;;;13.71;71.17;102172.47;5034657;28;9773;-66
2023/06/07 02:35:18;;;;;;;;;8.00;5.50;;;;;13.72;71.03;102172.25;5034383;28;10016;-66
2023/06/07 02:37:45;;;;;;;;;6.50;5.50;;;;;13.57;70.80;102176.78;5049639;28;9679;-66
2023/06/07 02:40:13;;;;;;;;;7.25;7.25;;;;;13.47;71.45;102168.09;5034655;28;9959;-66
2023/06/07 02:42:47;;;;;;;;;8.75;6.50;;;;;13.40;71.38;102173.38;5037001;28;9937;-66
2023/06/07 02:45:14;;;;;;;;;6.25;5.00;;;;;13.39;71.66;102169.00;5050601;28;9777;-66
2023/06/07 02:47:41;;;;;;;;;7.50;7.00;;;;;13.41;71.71;102175.06;5038630;28;9674;-67
2023/06/07 02:50:08;;;;;;;;;9.00;7.25;;;;;13.47;71.15;102178.91;5046983;28;9911;-66
2023/06/07 02:52:37;;;;;;;;;6.25;6.00;;;;;13.45;71.60;102167.41;5014977;28;9799;-67
2023/06/07 02:55:06;;;;;;;;;4.00;4.00;;;;;13.47;71.34;102168.94;5030837;28;9763;-67
2023/06/07 02:57:32;;;;;;;;;6.25;5.50;;;;;13.48;71.35;102175.16;5034247;28;9698;-67
2023/06/07 02:59:59;;;;;;;;;7.00;7.00;;;;;13.51;71.32;102172.94;5030424;28;10605;-67
2023/06/07 03:02:39;;;;;;;;;8.25;6.50;;;;;13.49;71.02;102164.19;5030611;28;10469;-67
2023/06/07 03:05:07;;;;;;;;;5.50;4.50;;;;;13.46;71.59;102169.97;5014329;28;9781;-67
2023/06/07 03:07:37;;;;;;;;;6.75;6.00;;;;;13.47;71.64;102170.78;5031030;28;9689;-67
2023/06/07 03:10:07;;;;;;;;;9.00;7.25;;;;;13.51;71.24;102169.41;5030274;28;9843;-67
2023/06/07 03:12:34;;;;;;;;;3.75;3.75;;;;;13.54;71.24;102169.06;5016110;28;9682;-67
2023/06/07 03:15:01;;;;;;;;;5.75;5.50;;;;;13.53;71.04;102173.63;5030099;28;9620;-67
2023/06/07 03:17:30;;;;;;;;;5.50;4.75;;;;;13.56;70.72;102170.53;5030897;28;9758;-67
2023/06/07 03:19:57;;;;;;;;;3.50;3.50;;;;;13.56;71.18;102167.00;5013981;28;9941;-67
2023/06/07 03:22:26;;;;;;;;;4.50;4.00;;;;;13.52;71.08;102171.09;5014191;28;9683;-67
2023/06/07 03:24:54;;;;;;;;;5.75;3.00;;;;;13.54;71.41;102171.75;5013739;28;9612;-67
2023/06/07 03:27:23;;;;;;;;;6.50;3.50;;;;;13.53;71.08;102164.66;5016392;28;9763;-67
2023/06/07 03:29:54;;;;;;;;;3.50;3.50;;;;;13.55;70.99;102173.44;5014056;28;9801;-66
2023/06/07 03:32:21;;;;;;;;;6.75;5.25;;;;;13.47;70.52;102179.75;5014111;28;9766;-67
2023/06/07 03:34:51;;;;;;;;;6.00;5.00;;;;;13.41;70.99;102183.19;5030096;28;9719;-67
2023/06/07 03:37:18;;;;;;;;;7.50;7.00;;;;;13.36;71.16;102178.28;5019992;28;9939;-66
2023/06/07 03:39:45;;;;;;;;;3.75;3.75;;;;;13.30;71.29;102179.03;5051726;28;9847;-66
2023/06/07 03:42:11;;;;;;;;;7.50;5.50;;;;;13.32;71.24;102176.13;5016561;28;9835;-66
2023/06/07 03:44:40;;;;;;;;;6.50;5.50;;;;;13.33;71.05;102175.97;5033346;28;9939;-66
2023/06/07 03:47:07;;;;;;;;;5.50;5.00;;;;;13.34;71.13;102176.81;5048695;28;9785;-66
2023/06/07 03:49:34;;;;;;;;;6.00;6.00;;;;;13.36;70.93;102170.19;5029762;28;10529;-66
2023/06/07 03:52:01;;;;;;;;;4.00;3.25;;;;;13.36;71.04;102167.47;5032260;28;9871;-66
2023/06/07 03:54:30;;;;;;;;;2.50;2.50;;;;;13.31;70.87;102169.88;5032933;28;10480;-66
2023/06/07 03:56:57;;;;;;;;;6.75;4.50;;;;;13.28;71.23;102170.22;5032162;28;10637;-66
2023/06/07 03:59:25;;;;;;;;;6.50;5.50;;;;;13.32;71.14;102170.72;5012450;28;9882;-66
2023/06/07 04:01:54;;;;;;;;;4.50;4.50;;;;;13.25;70.89;102177.91;5013303;28;9695;-66
2023/06/07 04:04:20;;;;;;;;;2.00;2.00;;;;;13.25;71.23;102175.19;5032743;28;9752;-66
2023/06/07 04:06:48;;;;;;;;;5.00;5.00;;;;;13.28;70.87;102178.34;5049339;28;9791;-67
2023/06/07 04:09:18;;;;;;;;;2.00;2.00;;;;;13.24;71.01;102176.19;5033336;28;9828;-66
2023/06/07 04:11:45;;;;;;;;;4.25;4.25;;;;;13.25;70.99;102167.91;5033095;28;9829;-66
2023/06/07 04:14:11;;;;;;;;;3.00;3.00;;;;;13.28;71.38;102172.94;5040608;28;9783;-67
2023/06/07 04:16:39;;;;;;;;;4.50;4.00;;;;;13.30;71.03;102168.22;5014696;28;9896;-67
2023/06/07 04:19:06;;;;;;;;;6.75;3.25;;;;;13.38;71.58;102180.00;5045761;28;9748;-66
2023/06/07 04:21:34;;;;;;;;;7.25;3.00;;;;;13.37;71.14;102181.88;5032826;28;9805;-66
2023/06/07 04:24:04;;;;;;;;;5.25;5.25;;;;;13.34;70.54;102177.66;5029739;28;9893;-66
2023/06/07 04:26:31;;;;;;;;;2.00;2.00;;;;;13.35;70.80;102176.63;5025299;28;9810;-67
2023/06/07 04:28:58;;;;;;;;;3.00;3.00;;;;;13.32;70.88;102174.25;5028807;28;9739;-67
2023/06/07 04:31:29;;;;;;;;;8.00;7.00;;;;;13.29;70.63;102179.22;5013149;28;10019;-66
2023/06/07 04:34:01;;;;;;;;;4.50;3.00;;;;;13.28;70.89;102178.34;5015655;28;10087;-68
2023/06/07 04:36:31;;;;;;;;;6.00;3.00;;;;;13.32;71.14;102181.53;5015364;28;9790;-67
2023/06/07 04:39:00;;;;;;;;;5.25;2.75;;;;;13.35;71.20;102179.31;5029225;28;10636;-67
2023/06/07 04:41:32;;;;;;;;;5.75;4.50;;;;;13.40;71.14;102177.94;5032958;28;10490;-67
2023/06/07 04:44:00;;;;;;;;;7.00;4.50;;;;;13.42;70.88;102175.91;5030931;28;9940;-66
2023/06/07 04:46:31;;;;;;;;;5.75;2.75;;;;;13.40;71.06;102180.66;5032475;28;9908;-66
2023/06/07 04:49:00;;;;;;;;;5.75;3.00;;;;;13.44;70.87;102171.16;5028810;28;9726;-66
2023/06/07 04:51:29;;;;;;;;;2.50;2.50;;;;;13.46;70.75;102188.06;5012729;28;9854;-67
2023/06/07 04:54:01;;;;;;;;;4.25;4.25;;;;;13.43;70.64;102186.53;5026933;28;9670;-67
2023/06/07 04:56:32;;;;;;;;;4.75;4.00;;;;;13.39;70.61;102184.38;5071869;23;9768;-67
2023/06/07 04:59:00;;;;;;;;;5.00;5.00;;;;;13.38;70.48;102182.69;5031966;28;9794;-67
2023/06/07 05:01:33;;;;;;;;;6.25;5.50;;;;;13.39;70.53;102193.34;5032376;28;9945;-67
2023/06/07 05:04:01;;;;;;;;;3.25;3.25;;;;;13.35;70.72;102192.00;5031808;28;9849;-68
2023/06/07 05:06:37;;;;;;;;;5.50;5.00;;;;;13.32;70.55;102185.09;5030592;28;9767;-68
2023/06/07 05:09:06;;;;;;;;;5.00;5.00;;;;;13.29;70.91;102190.88;5028798;28;9843;-68
2023/06/07 05:11:34;;;;;;;;;5.75;4.00;;;;;13.35;71.02;102178.47;5028777;28;9768;-67
2023/06/07 05:14:02;;;;;;;;;3.00;3.00;;;;;13.43;70.51;102191.09;5017102;28;9751;-67
2023/06/07 05:16:32;;;;;;;;;3.25;3.25;;;;;13.48;70.63;102188.69;5028911;28;9854;-69
2023/06/07 05:19:03;;;;;;;;;4.50;4.50;;;;;13.49;70.07;102185.84;5027036;28;9636;-68
2023/06/07 05:21:33;;;;;;;;;5.00;5.00;;;;;13.52;70.28;102179.19;5012605;28;9992;-68
2023/06/07 05:23:59;;;;;;;;;2.00;2.00;;;;;13.48;70.39;102180.59;5010485;28;10433;-68
2023/06/07 05:26:26;;;;;;;;;3.00;2.00;;;;;13.53;70.13;102189.84;5024104;28;9730;-69
2023/06/07 05:28:52;;;;;;;;;7.50;3.75;;;;;13.46;69.89;102186.19;5008970;28;9714;-69
2023/06/07 05:31:20;;;;;;;;;4.50;2.50;;;;;13.47;70.37;102187.03;5012578;28;9701;-68
2023/06/07 05:33:46;;;;;;;;;4.50;4.50;;;;;13.51;70.58;102182.94;5018203;28;9541;-68
2023/06/07 05:36:15;;;;;;;;;4.75;2.25;;;;;13.51;69.74;102177.53;5020831;28;9789;-68
2023/06/07 05:38:43;;;;;;;;;7.00;4.50;;;;;13.55;70.04;102181.56;5030778;28;9698;-68
2023/06/07 05:41:09;;;;;;;;;8.50;2.50;;;;;13.58;69.58;102179.31;5013699;28;10376;-68
2023/06/07 05:43:37;;;;;;;;;4.25;3.50;;;;;13.61;69.81;102188.94;5029783;28;9783;-68
2023/06/07 05:46:05;;;;;;;;;2.50;2.50;;;;;13.62;69.73;102190.63;5027536;28;9729;-68
2023/06/07 05:48:32;;;;;;;;;4.25;4.25;;;;;13.63;69.44;102189.59;5015299;28;9701;-68
2023/06/07 05:50:58;;;;;;;;;6.50;6.00;;;;;13.67;69.76;102193.63;4995292;28;10632;-69
2023/06/07 05:53:26;;;;;;;;;3.00;3.00;;;;;13.73;69.49;102195.63;5023701;28;9784;-68
2023/06/07 05:55:53;;;;;;;;;4.00;4.00;;;;;13.83;69.58;102198.06;5029545;28;9707;-68
2023/06/07 05:58:20;;;;;;;;;5.50;2.50;;;;;13.85;68.37;102201.41;5026723;28;9586;-70
2023/06/07 06:00:47;;;;;;;;;6.50;6.50;;;;;13.86;68.69;102203.13;5030173;28;9597;-68
2023/06/07 06:03:16;;;;;;;;;6.00;6.00;;;;;14.00;68.88;102206.88;5021923;28;9695;-68
2023/06/07 06:05:43;;;;;;;;;4.00;2.00;;;;;14.05;68.52;102204.44;5031988;28;9742;-68
2023/06/07 06:08:09;;;;;;;;;2.75;2.50;;;;;13.99;68.02;102203.34;5030284;28;9592;-68
2023/06/07 06:10:36;;;;;;;;;6.00;6.00;;;;;13.84;68.10;102206.00;5033697;28;9595;-68
2023/06/07 06:13:02;;;;;;;;;4.25;4.25;;;;;13.80;68.76;102214.66;5026398;28;9678;-68
2023/06/07 06:15:29;;;;;;;;;3.00;3.00;;;;;13.85;69.35;102210.41;5013064;28;9690;-68
2023/06/07 06:17:55;;;;;;;;;4.50;4.50;;;;;13.89;68.41;102218.13;5014227;28;9932;-69
2023/06/07 06:20:22;;;;;;;;;4.00;3.25;;;;;13.88;68.80;102211.88;4995779;28;9784;-68
2023/06/07 06:22:48;;;;;;;;;4.00;4.00;;;;;13.92;68.83;102209.66;5025336;28;9766;-68
2023/06/07 06:25:15;;;;;;;;;5.25;5.25;;;;;13.88;68.53;102211.03;5022229;28;9715;-68
2023/06/07 06:27:42;;;;;;;;;2.25;2.00;;;;;13.87;69.18;102214.78;5029542;28;9687;-69
2023/06/07 06:30:08;;;;;;;;;5.00;4.00;;;;;13.85;69.04;102212.25;5029730;28;9514;-68
2023/06/07 06:32:35;;;;;;;;;6.00;5.00;;;;;13.78;68.66;102219.44;5024947;28;9609;-69
2023/06/07 06:35:03;;;;;;;;;3.00;3.00;;;;;13.83;69.00;102219.72;5031678;28;9767;-68
2023/06/07 06:37:29;;;;;;;;;4.00;3.25;;;;;13.87;68.80;102228.31;5031208;28;9613;-68
2023/06/07 06:39:56;;;;;;;;;5.00;5.00;;;;;13.75;68.36;102230.59;5014848;28;9550;-68
2023/06/07 06:42:23;;;;;;;;;6.00;4.00;;;;;13.60;68.76;102234.09;5023594;28;9694;-68
2023/06/07 06:45:07;;;;;;;;;5.50;4.00;;;;;13.61;69.82;102224.09;5012300;28;9830;-68
2023/06/07 06:47:36;;;;;;;;;4.00;4.00;;;;;13.69;69.75;102226.75;5026161;28;9811;-68
2023/06/07 06:50:02;;;;;;;;;6.25;3.00;;;;;13.75;69.43;102228.75;5013808;28;9468;-68
2023/06/07 06:52:43;;;;;;;;;4.00;4.00;;;;;13.86;69.21;102230.19;5025218;28;9605;-68
2023/06/07 06:55:10;;;;;;;;;7.00;7.00;;;;;13.83;68.69;102220.56;5004558;28;9668;-68
2023/06/07 06:57:36;;;;;;;;;5.75;5.75;;;;;13.85;68.67;102223.94;5025295;28;9792;-68
2023/06/07 07:00:06;;;;;;;;;6.50;5.00;;;;;13.89;68.40;102226.25;5011667;28;9593;-68
2023/06/07 07:02:33;;;;;;;;;6.00;4.25;;;;;13.96;68.57;102222.63;5031964;28;9590;-68
2023/06/07 07:04:59;;;;;;;;;3.75;3.75;;;;;14.06;68.26;102227.81;5019053;28;9684;-68
2023/06/07 07:07:27;;;;;;;;;5.25;5.25;;;;;14.10;67.54;102227.25;5025753;28;9726;-68
2023/06/07 07:09:54;;;;;;;;;4.25;2.00;;;;;14.05;67.81;102223.41;5023786;28;9526;-68
2023/06/07 07:12:23;;;;;;;;;7.75;7.75;;;;;14.03;68.55;102229.00;5013119;28;9477;-68
2023/06/07 07:14:50;;;;;;;;;4.00;3.50;;;;;14.10;68.39;102237.25;5016015;28;9593;-69
2023/06/07 07:17:17;;;;;;;;;4.50;4.50;;;;;14.12;67.70;102237.91;5014574;28;9614;-70
2023/06/07 07:19:46;;;;;;;;;3.25;3.25;;;;;14.14;67.91;102229.56;5019847;28;9713;-68
2023/06/07 07:22:13;;;;;;;;;3.00;3.00;;;;;14.22;67.99;102230.38;5012502;28;9664;-69
2023/06/07 07:24:39;;;;;;;;;3.00;3.00;;;;;14.37;67.89;102233.06;5022503;28;9562;-69
2023/06/07 07:27:06;;;;;;;;;5.00;3.50;;;;;14.39;67.37;102235.63;5016724;28;9474;-69
2023/06/07 07:29:33;;;;;;;;;6.75;5.00;;;;;14.44;67.28;102244.03;5019585;28;9465;-69
2023/06/07 07:31:59;;;;;;;;;8.25;6.50;;;;;14.41;66.88;102239.81;5031869;28;9449;-69
2023/06/07 07:34:26;;;;;;;;;4.25;4.25;;;;;14.45;67.39;102234.88;5009475;28;9619;-69
2023/06/07 07:36:55;;;;;;;;;6.50;5.50;;;;;14.48;66.59;102232.63;5020323;28;9533;-70
2023/06/07 07:39:22;;;;;;;;;3.50;2.50;;;;;14.40;66.01;102231.88;5017416;28;9477;-69
2023/06/07 07:41:48;;;;;;;;;9.00;5.50;;;;;14.31;66.82;102226.53;5013811;28;9455;-69
2023/06/07 07:44:15;;;;;;;;;3.00;3.00;;;;;14.30;67.07;102230.28;5030051;28;9553;-68
2023/06/07 07:46:41;;;;;;;;;6.00;5.67;;;;;14.34;67.08;102234.31;5029320;28;9548;-68
2023/06/07 07:49:09;;;;;;;;;2.00;2.00;;;;;14.45;67.44;102226.72;5010119;28;9391;-70
2023/06/07 07:51:36;;;;;;;;;5.00;4.00;;;;;14.47;67.11;102230.13;5028923;28;9402;-69
2023/06/07 07:54:04;;;;;;;;;4.00;4.00;;;;;14.39;66.71;102232.91;5010623;28;9413;-69
2023/06/07 07:56:30;;;;;;;;;5.50;4.50;;;;;14.37;67.38;102237.66;5010912;28;9542;-69
2023/06/07 07:58:56;;;;;;;;;3.00;3.00;;;;;14.48;67.54;102231.78;5013016;28;9537;-69
2023/06/07 08:01:23;;;;;;;;;5.33;5.00;;;;;14.51;66.63;102234.16;5023735;28;9967;-68
2023/06/07 08:03:50;;;;;;;;;4.33;4.33;;;;;14.57;67.03;102236.13;5030861;28;9452;-68
2023/06/07 08:06:17;;;;;;;;;5.00;5.00;;;;;14.62;66.39;102235.56;5012287;28;9241;-68
2023/06/07 08:08:47;;;;;;;;;6.50;6.50;;;;;14.60;65.32;102238.47;5028394;28;9462;-68
2023/06/07 08:11:13;;;;;;;;;4.67;4.67;;;;;14.57;66.52;102241.53;5004339;28;9453;-68
2023/06/07 08:13:40;;;;;;;;;4.33;3.00;;;;;14.64;66.79;102244.34;5013612;28;9414;-69
2023/06/07 08:16:07;;;;;;;;;3.67;3.00;;;;;14.76;66.85;102240.97;5017314;28;9461;-69
2023/06/07 08:18:33;;;;;;;;;6.00;4.00;;;;;14.86;65.77;102240.69;5030564;28;9332;-69
2023/06/07 08:21:00;;;;;;;;;5.33;5.00;;;;;14.77;65.91;102236.41;5015493;28;9319;-71
2023/06/07 08:23:26;;;;;;;;;3.00;3.00;;;;;14.80;66.02;102241.44;5027585;28;9376;-69
2023/06/07 08:25:53;;;;;;;;;5.00;5.00;;;;;14.89;66.13;102244.91;5028593;28;9401;-69
2023/06/07 08:28:20;;;;;;;;;4.67;4.00;;;;;14.99;65.83;102232.75;5008983;28;9263;-70
2023/06/07 08:30:47;;;;;;;;;6.67;5.00;;;;;14.99;65.55;102231.88;5021833;28;9372;-69
2023/06/07 08:33:14;;;;;;;;;5.00;5.00;;;;;15.04;65.57;102243.84;5023196;28;9382;-69
2023/06/07 08:35:40;;;;;;;;;6.33;5.67;;;;;14.98;65.48;102241.03;5025648;28;9378;-69
2023/06/07 08:38:08;;;;;;;;;4.75;4.75;;;;;14.89;65.46;102240.31;5028256;28;9307;-69
2023/06/07 08:40:36;;;;;;;;;5.67;5.67;;;;;14.87;65.76;102234.25;5017868;28;9451;-69
2023/06/07 08:43:03;;;;;;;;;8.50;6.50;;;;;14.91;65.99;102229.25;5024861;28;9473;-69
2023/06/07 08:45:30;;;;;;;;;6.00;5.00;;;;;14.96;66.46;102235.81;5008020;28;9570;-69
2023/06/07 08:48:01;;;;;;;;;4.00;3.00;;;;;15.11;66.69;102229.50;5001707;28;9462;-69
2023/06/07 08:50:27;;;;;;;;;9.00;6.25;;;;;15.19;66.14;102230.28;5028900;28;9465;-69
2023/06/07 08:52:55;;;;;;;;;8.00;7.00;;;;;15.26;65.42;102231.16;5029852;28;9468;-69
2023/06/07 08:55:22;;;;;;;;;8.67;6.33;;;;;15.31;65.70;102233.31;5010701;28;9533;-69
2023/06/07 08:57:55;;;;;;;;;7.33;6.00;;;;;15.33;64.93;102239.38;5027185;28;9362;-69
2023/06/07 09:00:23;;;;;;;;;9.50;7.75;;;;;15.28;64.99;102244.56;5030619;28;9291;-69
2023/06/07 09:02:53;;;;;;;;;8.75;8.75;;;;;15.21;65.10;102235.50;5030652;28;9440;-69
2023/06/07 09:05:21;;;;;;;;;7.00;7.00;;;;;15.13;65.31;102233.72;5021432;28;9552;-69
2023/06/07 09:07:48;;;;;;;;;6.33;6.33;;;;;15.10;66.12;102231.38;5027713;28;9326;-69
2023/06/07 09:10:17;;;;;;;;;9.00;9.00;;;;;15.20;65.92;102231.94;4994607;28;9337;-69
2023/06/07 09:12:47;;;;;;;;;4.33;2.67;;;;;15.30;65.63;102242.47;5027834;28;9316;-69
2023/06/07 09:15:18;;;;;;;;;8.00;7.00;;;;;15.40;65.51;102236.75;5013030;28;9329;-69
2023/06/07 09:17:59;;;;;;;;;9.33;7.00;;;;;15.47;64.93;102241.19;5012047;28;9408;-69
2023/06/07 09:20:27;;;;;;;;;9.00;7.00;;;;;15.52;64.92;102237.94;5029666;28;10165;-69
2023/06/07 09:23:11;;;;;;;;;6.33;6.00;;;;;15.60;63.78;102235.09;5008288;28;10120;-69
2023/06/07 09:25:38;;;;;;;;;6.00;6.00;;;;;15.52;64.23;102235.22;5022328;28;9443;-69
2023/06/07 09:28:12;;;;;;;;;6.00;5.33;;;;;15.53;64.42;102236.91;5025866;28;9304;-69
2023/06/07 09:30:55;;;;;;;;;9.00;7.67;;;;;15.64;64.37;102238.22;5022294;28;9242;-69
2023/06/07 09:33:29;;;;;;;;;5.00;5.00;;;;;15.74;63.79;102241.50;5026252;28;9231;-69
2023/06/07 09:36:22;;;;;;;;;5.00;5.00;;;;;15.74;63.94;102233.38;5018953;28;9372;-69
2023/06/07 09:38:48;;;;;;;;;7.33;5.67;;;;;15.73;63.48;102231.69;5026822;28;9225;-69
2023/06/07 09:41:15;;;;;;;;;7.67;6.00;;;;;15.63;63.61;102234.69;5018560;28;9201;-69
2023/06/07 09:43:54;;;;;;;;;6.00;6.00;;;;;15.64;64.01;102230.97;4992240;28;9238;-69
2023/06/07 09:46:21;;;;;;;;;10.33;7.00;;;;;15.61;63.96;102225.06;5007998;28;9413;-69
2023/06/07 09:48:52;;;;;;;;;7.33;5.00;;;;;15.75;63.96;102225.03;5027006;28;9505;-69
2023/06/07 09:51:20;;;;;;;;;6.67;6.00;;;;;15.83;63.51;102233.03;5024434;28;9968;-69
2023/06/07 09:53:55;;;;;;;;;10.00;6.33;;;;;15.78;63.40;102232.78;5011272;28;9319;-69
2023/06/07 09:56:22;;;;;;;;;7.33;7.00;;;;;15.74;64.03;102234.22;5014797;28;9405;-69
2023/06/07 09:59:06;;;;;;;;;7.00;7.00;;;;;15.72;64.45;102225.44;5009469;28;9386;-69
2023/06/07 10:01:34;;;;;;;;;7.67;7.00;;;;;15.89;64.58;102230.59;5019914;28;9410;-69
2023/06/07 10:04:04;;;;;;;;;9.33;9.33;;;;;15.98;64.17;102243.00;5025021;28;9304;-69
2023/06/07 10:06:34;;;;;;;;;16.00;11.00;;;;;16.00;63.15;102232.75;5022572;28;9379;-69
2023/06/07 10:09:05;;;;;;;;;5.33;5.33;;;;;15.99;63.95;102231.09;5026657;28;9368;-69
2023/06/07 10:11:33;;;;;;;;;8.33;6.33;;;;;16.09;63.74;102228.03;5015801;28;9278;-69
2023/06/07 10:14:11;;;;;;;;;11.33;9.00;;;;;16.18;63.09;102224.13;5009195;28;9320;-69
2023/06/07 10:17:10;;;;;;;;;6.00;6.00;;;;;16.21;63.03;102219.16;5019678;28;9430;-68
2023/06/07 10:19:42;;;;;;;;;7.00;5.33;;;;;16.28;63.53;102222.72;5031191;28;9231;-68
2023/06/07 10:22:14;;;;;;;;;11.25;9.50;;;;;16.35;62.79;102225.50;5027261;28;9250;-70
2023/06/07 10:25:04;;;;;;;;;6.00;6.00;;;;;16.25;62.36;102222.31;5031419;28;9676;-69
2023/06/07 10:27:54;;;;;;;;;7.00;7.00;;;;;16.17;62.68;102223.31;5032423;28;9960;-68
2023/06/07 10:30:24;;;;;;;;;9.33;9.33;;;;;16.21;63.70;102223.75;5031546;28;9198;-68
2023/06/07 10:32:52;;;;;;;;;8.00;8.00;;;;;16.30;63.09;102215.22;5028245;28;9239;-68
2023/06/07 10:35:19;;;;;;;;;10.00;10.00;;;;;16.35;62.64;102216.50;5025936;28;9214;-67
2023/06/07 10:37:53;;;;;;;;;7.00;7.00;;;;;16.34;63.28;102220.28;5032700;28;9251;-67
2023/06/07 10:40:24;;;;;;;;;10.67;8.67;;;;;16.38;63.29;102211.53;5032102;28;9113;-69
2023/06/07 10:42:55;;;;;;;;;6.33;6.00;;;;;16.44;63.52;102208.00;5028350;28;9142;-69
2023/06/07 10:45:22;;;;;;;;;6.67;6.00;;;;;16.48;62.58;102208.44;5031782;28;9288;-69
2023/06/07 10:47:49;;;;;;;;;12.33;7.00;;;;;16.47;62.88;102206.78;5021348;28;9241;-69
2023/06/07 10:50:27;;;;;;;;;10.00;9.00;;;;;16.42;63.27;102201.09;5025077;28;9234;-69
2023/06/07 10:52:56;;;;;;;;;11.33;9.67;;;;;16.44;62.70;102199.84;5007466;28;9410;-69
2023/06/07 10:55:26;;;;;;;;;11.00;10.00;;;;;16.40;62.97;102198.56;5031988;28;9353;-70
2023/06/07 10:57:54;;;;;;;;;15.00;10.00;;;;;16.45;63.20;102203.44;5035572;23;9424;-66
2023/06/07 11:00:31;;;;;;;;;8.00;8.00;;;;;16.44;64.25;102199.00;5014877;28;9446;-66
2023/06/07 11:03:04;;;;;;;;;11.33;7.00;;;;;16.52;63.35;102204.28;5015023;28;10092;-66
2023/06/07 11:05:53;;;;;;;;;13.00;12.00;;;;;16.51;63.15;102200.72;5019274;28;9414;-67
2023/06/07 11:08:29;;;;;;;;;10.00;8.67;;;;;16.59;63.17;102207.88;5032136;28;9649;-67
2023/06/07 11:10:58;;;;;;;;;13.33;11.33;;;;;16.62;63.13;102209.38;5032077;28;9364;-67
2023/06/07 11:13:25;;;;;;;;;9.33;9.33;;;;;16.63;63.20;102209.16;5030912;28;9227;-67
2023/06/07 11:15:52;;;;;;;;;6.33;6.33;;;;;16.66;63.62;102202.50;5031934;28;9138;-67
2023/06/07 11:18:19;;;;;;;;;11.00;9.67;;;;;16.62;62.65;102202.06;5031183;28;9300;-67
2023/06/07 11:20:49;;;;;;;;;7.33;7.00;;;;;16.55;62.80;102195.72;5031840;28;9296;-67
2023/06/07 11:23:24;;;;;;;;;10.67;6.00;;;;;16.56;63.57;102189.25;5014354;28;9223;-67
2023/06/07 11:25:54;;;;;;;;;11.00;5.00;;;;;16.62;63.62;102185.75;5031708;28;9153;-66
2023/06/07 11:28:22;;;;;;;;;11.33;9.67;;;;;16.64;63.61;102188.25;5012964;28;9090;-67
2023/06/07 11:30:50;;;;;;;;;10.33;9.33;;;;;16.73;63.07;102187.06;5029847;28;9297;-66
2023/06/07 11:33:19;;;;;;;;;9.00;7.00;;;;;16.90;63.08;102184.84;5031284;28;10002;-67
2023/06/07 11:35:46;;;;;;;;;7.00;7.00;;;;;17.07;62.89;102185.31;5013768;28;9051;-67
2023/06/07 11:38:13;;;;;;;;;9.33;6.00;;;;;17.14;62.45;102187.03;5026252;28;9106;-67
2023/06/07 11:40:39;;;;;;;;;9.33;8.00;;;;;17.19;62.03;102192.69;5020193;28;9139;-67